Time;durP1;ratioP1;P1;durP2;ratioP2;P2;SDS_P1;SDS_P2;PMS_P1;PMS_P2;Temp;Humidity;BMP_temperature;BMP_pressure;BME280_temperature;BME280_humidity;BME280_pressure;Samples;Min_cycle;Max_cycle;Signal;HPM_P1;HPM_P2
2024/03/07 00:00:14;;;;;;;59.53;27.57;;;;;;;;;;4995594;28;20183;-70
2024/03/07 00:02:40;;;;;;;60.93;27.53;;;;;;;;;;5011986;28;20214;-69
2024/03/07 00:05:07;;;;;;;57.97;26.73;;;;;;;;;;4995127;28;20555;-70
2024/03/07 00:07:33;;;;;;;55.30;27.17;;;;;;;;;;5006670;28;20249;-70
2024/03/07 00:09:58;;;;;;;58.00;26.63;;;;;;;;;;5006975;28;20589;-70
2024/03/07 00:12:24;;;;;;;52.37;26.10;;;;;;;;;;5009935;28;20179;-70
2024/03/07 00:14:49;;;;;;;55.87;27.33;;;;;;;;;;5006264;28;20181;-70
2024/03/07 00:17:14;;;;;;;50.97;26.83;;;;;;;;;;5011325;28;20218;-70
2024/03/07 00:19:39;;;;;;;54.40;26.13;;;;;;;;;;5007696;28;20562;-71
2024/03/07 00:22:04;;;;;;;66.83;28.83;;;;;;;;;;5006977;28;20555;-71
2024/03/07 00:24:30;;;;;;;56.43;27.67;;;;;;;;;;5008419;28;20289;-70
2024/03/07 00:26:56;;;;;;;56.47;27.93;;;;;;;;;;4995059;28;20248;-70
2024/03/07 00:29:22;;;;;;;56.60;27.67;;;;;;;;;;5012397;28;20171;-70
2024/03/07 00:31:47;;;;;;;53.23;27.10;;;;;;;;;;5006235;28;20171;-71
2024/03/07 00:34:15;;;;;;;63.37;29.47;;;;;;;;;;5004574;28;20187;-70
2024/03/07 00:36:41;;;;;;;62.07;28.23;;;;;;;;;;5007516;28;20199;-71
2024/03/07 00:39:08;;;;;;;62.10;29.43;;;;;;;;;;5013289;28;20175;-69
2024/03/07 00:41:33;;;;;;;55.37;28.70;;;;;;;;;;4995027;28;20203;-71
2024/03/07 00:43:58;;;;;;;60.50;29.63;;;;;;;;;;5006372;28;20226;-70
2024/03/07 00:46:24;;;;;;;62.73;28.60;;;;;;;;;;5007237;28;20183;-70
2024/03/07 00:48:49;;;;;;;67.00;29.20;;;;;;;;;;5012164;28;20217;-69
2024/03/07 00:51:14;;;;;;;58.03;29.20;;;;;;;;;;5004653;28;20175;-70
2024/03/07 00:53:39;;;;;;;59.63;28.50;;;;;;;;;;4992803;28;20702;-70
2024/03/07 00:56:05;;;;;;;56.50;30.00;;;;;;;;;;5012050;28;20167;-71
2024/03/07 00:58:30;;;;;;;61.73;31.50;;;;;;;;;;5008954;28;20225;-70
2024/03/07 01:00:56;;;;;;;51.73;26.83;;;;;;;;;;5004442;28;20262;-71
2024/03/07 01:03:21;;;;;;;58.63;28.23;;;;;;;;;;5012666;28;20206;-70
2024/03/07 01:05:47;;;;;;;55.73;27.23;;;;;;;;;;5012452;28;20238;-71
2024/03/07 01:08:12;;;;;;;58.30;28.57;;;;;;;;;;4992472;28;20678;-70
2024/03/07 01:10:37;;;;;;;55.70;28.10;;;;;;;;;;4990514;28;20186;-70
2024/03/07 01:13:05;;;;;;;57.13;29.40;;;;;;;;;;5011288;28;20182;-70
2024/03/07 01:15:32;;;;;;;60.47;27.80;;;;;;;;;;5010978;28;20174;-71
2024/03/07 01:17:57;;;;;;;65.67;28.33;;;;;;;;;;5012481;28;20211;-71
2024/03/07 01:20:25;;;;;;;70.10;30.63;;;;;;;;;;4993029;28;20183;-69
2024/03/07 01:22:51;;;;;;;59.47;28.07;;;;;;;;;;5011335;28;20213;-70
2024/03/07 01:25:16;;;;;;;57.80;29.17;;;;;;;;;;5006036;28;20214;-70
2024/03/07 01:27:41;;;;;;;62.20;28.93;;;;;;;;;;5007259;28;20547;-70
2024/03/07 01:30:08;;;;;;;57.67;27.53;;;;;;;;;;5005521;28;20182;-69
2024/03/07 01:32:33;;;;;;;58.43;27.40;;;;;;;;;;5003918;28;20662;-69
2024/03/07 01:34:58;;;;;;;61.93;29.20;;;;;;;;;;5008390;28;20193;-70
2024/03/07 01:37:23;;;;;;;71.07;28.67;;;;;;;;;;5011840;28;20259;-70
2024/03/07 01:39:49;;;;;;;60.73;29.70;;;;;;;;;;5009257;28;20167;-70
2024/03/07 01:42:14;;;;;;;66.40;29.63;;;;;;;;;;5010476;28;20254;-70
2024/03/07 01:44:41;;;;;;;70.73;32.03;;;;;;;;;;4993105;28;20268;-69
2024/03/07 01:47:07;;;;;;;76.63;32.73;;;;;;;;;;5007086;28;20201;-70
2024/03/07 01:49:32;;;;;;;75.97;32.33;;;;;;;;;;5009072;28;20187;-70
2024/03/07 01:51:58;;;;;;;68.43;33.47;;;;;;;;;;5003151;28;20262;-70
2024/03/07 01:54:23;;;;;;;77.50;32.53;;;;;;;;;;4986062;28;20179;-70
2024/03/07 01:56:49;;;;;;;68.90;32.37;;;;;;;;;;5004898;28;20245;-70
2024/03/07 01:59:15;;;;;;;75.07;32.13;;;;;;;;;;5006991;28;20671;-71
2024/03/07 02:01:40;;;;;;;71.63;33.13;;;;;;;;;;5006912;28;20179;-70
2024/03/07 02:04:05;;;;;;;76.40;33.47;;;;;;;;;;5007193;28;20207;-70
2024/03/07 02:06:30;;;;;;;70.93;31.30;;;;;;;;;;5006371;28;20740;-70
2024/03/07 02:08:56;;;;;;;61.00;31.50;;;;;;;;;;5008949;28;20452;-70
2024/03/07 02:11:23;;;;;;;72.37;32.47;;;;;;;;;;5000369;28;20702;-70
2024/03/07 02:13:48;;;;;;;70.20;32.73;;;;;;;;;;5002900;28;20183;-70
2024/03/07 02:16:14;;;;;;;79.30;33.53;;;;;;;;;;5000208;28;20175;-71
2024/03/07 02:18:39;;;;;;;77.83;32.37;;;;;;;;;;5026610;23;20609;-72
2024/03/07 02:21:08;;;;;;;77.43;32.73;;;;;;;;;;5006234;28;20195;-73
2024/03/07 02:23:34;;;;;;;72.33;34.53;;;;;;;;;;5009849;28;20234;-72
2024/03/07 02:25:59;;;;;;;75.60;34.33;;;;;;;;;;5011711;28;20206;-72
2024/03/07 02:28:24;;;;;;;77.23;33.27;;;;;;;;;;4992595;28;20202;-72
2024/03/07 02:30:49;;;;;;;71.53;32.43;;;;;;;;;;4974151;28;20215;-72
2024/03/07 02:33:14;;;;;;;73.53;33.30;;;;;;;;;;4977304;28;20195;-72
2024/03/07 02:35:40;;;;;;;77.43;32.73;;;;;;;;;;4983021;28;20171;-72
2024/03/07 02:38:05;;;;;;;73.13;31.87;;;;;;;;;;4982146;28;20183;-72
2024/03/07 02:40:31;;;;;;;78.23;34.17;;;;;;;;;;4993149;28;20812;-73
2024/03/07 02:42:56;;;;;;;67.83;33.80;;;;;;;;;;4994185;28;20258;-72
2024/03/07 02:45:21;;;;;;;81.00;35.23;;;;;;;;;;5002598;28;20573;-72
2024/03/07 02:47:46;;;;;;;74.47;34.27;;;;;;;;;;4983386;28;20203;-72
2024/03/07 02:50:12;;;;;;;82.60;33.70;;;;;;;;;;5000132;28;20168;-72
2024/03/07 02:52:37;;;;;;;82.27;36.57;;;;;;;;;;4997209;28;20179;-72
2024/03/07 02:55:04;;;;;;;68.90;33.93;;;;;;;;;;4985233;28;20182;-72
2024/03/07 02:57:30;;;;;;;83.90;34.13;;;;;;;;;;4995775;28;20276;-72
2024/03/07 02:59:56;;;;;;;91.07;37.97;;;;;;;;;;4995892;28;20187;-72
2024/03/07 03:02:21;;;;;;;83.97;36.03;;;;;;;;;;5000575;28;20540;-72
2024/03/07 03:04:47;;;;;;;89.10;36.03;;;;;;;;;;4999694;28;20203;-72
2024/03/07 03:07:12;;;;;;;86.33;36.10;;;;;;;;;;4996543;28;20191;-72
2024/03/07 03:09:42;;;;;;;81.40;34.57;;;;;;;;;;4994618;28;20675;-73
2024/03/07 03:12:08;;;;;;;78.67;35.17;;;;;;;;;;4998635;28;20225;-72
2024/03/07 03:14:33;;;;;;;74.87;33.80;;;;;;;;;;4996534;28;20621;-72
2024/03/07 03:16:58;;;;;;;74.20;34.33;;;;;;;;;;4995719;28;20293;-72
2024/03/07 03:19:25;;;;;;;83.73;35.93;;;;;;;;;;4977482;28;20360;-72
2024/03/07 03:21:52;;;;;;;90.53;37.07;;;;;;;;;;4995539;28;20183;-72
2024/03/07 03:24:17;;;;;;;69.60;33.47;;;;;;;;;;4997942;28;20207;-72
2024/03/07 03:26:42;;;;;;;80.10;33.80;;;;;;;;;;4995726;28;20195;-72
2024/03/07 03:29:09;;;;;;;71.47;33.07;;;;;;;;;;4980269;28;20202;-72
2024/03/07 03:31:35;;;;;;;74.33;31.93;;;;;;;;;;4998189;28;20725;-73
2024/03/07 03:34:00;;;;;;;66.73;31.43;;;;;;;;;;4994325;28;20187;-72
2024/03/07 03:36:26;;;;;;;79.80;33.43;;;;;;;;;;4979528;28;20179;-73
2024/03/07 03:38:51;;;;;;;70.87;33.17;;;;;;;;;;4997347;28;20691;-72
2024/03/07 03:41:16;;;;;;;58.67;29.57;;;;;;;;;;4996284;28;20214;-72
2024/03/07 03:43:42;;;;;;;69.87;32.10;;;;;;;;;;4997101;28;20199;-72
2024/03/07 03:46:10;;;;;;;67.73;29.93;;;;;;;;;;4992261;28;20203;-72
2024/03/07 03:48:35;;;;;;;75.73;32.53;;;;;;;;;;4986168;28;20199;-72
2024/03/07 03:51:00;;;;;;;64.30;30.80;;;;;;;;;;4982853;28;20172;-72
2024/03/07 03:53:25;;;;;;;65.37;32.50;;;;;;;;;;4993067;28;20533;-72
2024/03/07 03:55:51;;;;;;;67.23;30.53;;;;;;;;;;4992861;28;20187;-72
2024/03/07 03:58:16;;;;;;;64.70;29.50;;;;;;;;;;4991570;28;20234;-72
2024/03/07 04:00:42;;;;;;;66.67;30.93;;;;;;;;;;4998313;28;20256;-72
2024/03/07 04:03:07;;;;;;;64.50;29.47;;;;;;;;;;4999549;28;20178;-72
2024/03/07 04:05:32;;;;;;;63.43;31.20;;;;;;;;;;4998780;28;20179;-72
2024/03/07 04:07:58;;;;;;;65.10;32.77;;;;;;;;;;4996790;28;20282;-72
2024/03/07 04:10:23;;;;;;;72.33;32.93;;;;;;;;;;4993881;28;20176;-72
2024/03/07 04:12:49;;;;;;;65.63;29.83;;;;;;;;;;4977653;28;20195;-72
2024/03/07 04:15:18;;;;;;;66.27;28.80;;;;;;;;;;4973807;28;20176;-72
2024/03/07 04:17:45;;;;;;;67.23;32.10;;;;;;;;;;4992213;28;20219;-72
2024/03/07 04:20:10;;;;;;;70.27;29.73;;;;;;;;;;4981495;28;20179;-72
2024/03/07 04:22:38;;;;;;;67.47;30.67;;;;;;;;;;4993100;28;20187;-72
2024/03/07 04:25:04;;;;;;;71.50;31.47;;;;;;;;;;4993995;28;20203;-72
2024/03/07 04:27:30;;;;;;;71.40;30.07;;;;;;;;;;4986923;28;20253;-72
2024/03/07 04:29:55;;;;;;;72.00;34.43;;;;;;;;;;4995588;28;20214;-72
2024/03/07 04:32:20;;;;;;;69.13;32.13;;;;;;;;;;4990405;28;20204;-72
2024/03/07 04:34:46;;;;;;;70.87;31.67;;;;;;;;;;4979870;28;20192;-72
2024/03/07 04:37:11;;;;;;;76.87;30.80;;;;;;;;;;4993740;28;20626;-73
2024/03/07 04:39:37;;;;;;;68.67;32.97;;;;;;;;;;4991964;28;20180;-72
2024/03/07 04:42:03;;;;;;;73.80;32.57;;;;;;;;;;4982252;28;20196;-72
2024/03/07 04:44:28;;;;;;;67.70;30.10;;;;;;;;;;4994536;28;20219;-72
2024/03/07 04:46:56;;;;;;;81.90;33.80;;;;;;;;;;4996874;28;20663;-72
2024/03/07 04:49:25;;;;;;;65.63;32.27;;;;;;;;;;4993397;28;20180;-72
2024/03/07 04:51:51;;;;;;;68.43;31.57;;;;;;;;;;4995082;28;20236;-72
2024/03/07 04:54:17;;;;;;;72.57;32.33;;;;;;;;;;4992678;28;20262;-72
2024/03/07 04:56:42;;;;;;;77.10;33.53;;;;;;;;;;4977492;28;20327;-73
2024/03/07 04:59:07;;;;;;;68.27;34.20;;;;;;;;;;4995136;28;20263;-72
2024/03/07 05:01:32;;;;;;;81.17;33.70;;;;;;;;;;4995139;28;20176;-72
2024/03/07 05:03:57;;;;;;;67.30;30.63;;;;;;;;;;4999606;28;20190;-73
2024/03/07 05:06:23;;;;;;;57.97;29.97;;;;;;;;;;4994547;28;20190;-73
2024/03/07 05:08:48;;;;;;;76.53;34.20;;;;;;;;;;4993784;28;20211;-72
2024/03/07 05:11:13;;;;;;;71.83;32.67;;;;;;;;;;4992376;28;20191;-72
2024/03/07 05:13:38;;;;;;;67.57;31.43;;;;;;;;;;4995068;28;20179;-72
2024/03/07 05:16:04;;;;;;;62.30;29.60;;;;;;;;;;4994592;28;20172;-72
2024/03/07 05:18:29;;;;;;;76.53;34.93;;;;;;;;;;4979625;28;20269;-72
2024/03/07 05:20:54;;;;;;;73.27;32.97;;;;;;;;;;4989602;28;20184;-72
2024/03/07 05:23:19;;;;;;;70.03;32.97;;;;;;;;;;4995068;28;20239;-72
2024/03/07 05:25:45;;;;;;;67.47;32.37;;;;;;;;;;4984963;28;20611;-72
2024/03/07 05:28:11;;;;;;;70.07;31.40;;;;;;;;;;4988186;28;20195;-72
2024/03/07 05:30:36;;;;;;;69.80;31.30;;;;;;;;;;4991294;28;20183;-72
2024/03/07 05:33:02;;;;;;;70.23;32.23;;;;;;;;;;4990904;28;20172;-72
2024/03/07 05:35:29;;;;;;;64.93;30.83;;;;;;;;;;4998867;28;20217;-72
2024/03/07 05:37:56;;;;;;;69.23;31.70;;;;;;;;;;4978220;28;20207;-72
2024/03/07 05:40:21;;;;;;;66.40;32.57;;;;;;;;;;4980181;28;20186;-72
2024/03/07 05:42:46;;;;;;;72.87;33.23;;;;;;;;;;4995340;28;20176;-72
2024/03/07 05:45:13;;;;;;;74.30;32.50;;;;;;;;;;4995695;28;20199;-72
2024/03/07 05:47:38;;;;;;;68.93;31.57;;;;;;;;;;4996447;28;20562;-72
2024/03/07 05:50:04;;;;;;;76.47;33.90;;;;;;;;;;4994195;28;20266;-71
2024/03/07 05:52:29;;;;;;;69.40;30.13;;;;;;;;;;4990375;28;20612;-71
2024/03/07 05:54:54;;;;;;;86.43;33.57;;;;;;;;;;4995880;28;20217;-71
2024/03/07 05:57:19;;;;;;;74.17;32.87;;;;;;;;;;4993211;28;20671;-72
2024/03/07 05:59:46;;;;;;;77.10;33.73;;;;;;;;;;4995167;28;20207;-72
2024/03/07 06:02:15;;;;;;;67.60;30.07;;;;;;;;;;4996038;28;20171;-71
2024/03/07 06:04:40;;;;;;;70.33;33.17;;;;;;;;;;4993464;28;20210;-72
2024/03/07 06:07:06;;;;;;;65.33;31.70;;;;;;;;;;4992826;28;20581;-71
2024/03/07 06:09:31;;;;;;;71.93;34.27;;;;;;;;;;4997643;28;20175;-72
2024/03/07 06:11:56;;;;;;;65.27;30.63;;;;;;;;;;4988472;28;20179;-72
2024/03/07 06:14:23;;;;;;;69.53;32.60;;;;;;;;;;5002997;28;20638;-72
2024/03/07 06:16:48;;;;;;;65.87;31.90;;;;;;;;;;5003884;28;20206;-73
2024/03/07 06:19:13;;;;;;;70.90;31.23;;;;;;;;;;4999710;28;20525;-73
2024/03/07 06:21:39;;;;;;;75.93;33.60;;;;;;;;;;4988678;28;20183;-72
2024/03/07 06:24:04;;;;;;;73.30;32.93;;;;;;;;;;4999443;28;20242;-72
2024/03/07 06:27:09;;;;;;;71.33;32.13;;;;;;;;;;5000651;28;20180;-72
2024/03/07 06:29:22;;;;;;;68.60;33.47;;;;;;;;;;4997316;28;20555;-73
2024/03/07 06:31:47;;;;;;;75.13;32.93;;;;;;;;;;5002881;28;20186;-73
2024/03/07 06:34:13;;;;;;;62.17;31.83;;;;;;;;;;4983186;28;20190;-72
2024/03/07 06:36:38;;;;;;;71.67;35.13;;;;;;;;;;4997346;28;20176;-72
2024/03/07 06:39:05;;;;;;;67.27;31.53;;;;;;;;;;5002342;28;20179;-72
2024/03/07 06:41:31;;;;;;;69.97;31.10;;;;;;;;;;4988914;28;20589;-72
2024/03/07 06:43:56;;;;;;;72.67;33.20;;;;;;;;;;5001223;28;20210;-72
2024/03/07 06:46:21;;;;;;;72.43;31.53;;;;;;;;;;4998509;28;20179;-72
2024/03/07 06:48:46;;;;;;;69.43;33.30;;;;;;;;;;5002477;28;20196;-72
2024/03/07 06:51:12;;;;;;;72.93;32.17;;;;;;;;;;5000641;28;20733;-72
2024/03/07 06:53:38;;;;;;;71.67;32.00;;;;;;;;;;5000064;28;20242;-72
2024/03/07 06:56:03;;;;;;;74.37;34.50;;;;;;;;;;5001145;28;20184;-72
2024/03/07 06:58:29;;;;;;;74.23;33.10;;;;;;;;;;5000816;28;20633;-72
2024/03/07 07:00:54;;;;;;;79.47;33.83;;;;;;;;;;4983064;28;20198;-73
2024/03/07 07:03:22;;;;;;;64.50;30.73;;;;;;;;;;5000805;28;20251;-72
2024/03/07 07:05:48;;;;;;;64.30;30.80;;;;;;;;;;4998063;28;20571;-72
2024/03/07 07:08:13;;;;;;;66.57;32.27;;;;;;;;;;4994138;28;20207;-72
2024/03/07 07:10:40;;;;;;;62.40;31.50;;;;;;;;;;5002068;28;20266;-72
2024/03/07 07:13:05;;;;;;;67.67;33.33;;;;;;;;;;5000261;28;20666;-72
2024/03/07 07:15:30;;;;;;;72.00;33.17;;;;;;;;;;4985400;28;20262;-72
2024/03/07 07:17:56;;;;;;;64.07;31.50;;;;;;;;;;4992108;28;20220;-73
2024/03/07 07:20:23;;;;;;;60.33;31.10;;;;;;;;;;4985889;28;20675;-72
2024/03/07 07:22:49;;;;;;;59.07;31.00;;;;;;;;;;4986342;28;20211;-73
2024/03/07 07:25:15;;;;;;;58.73;30.13;;;;;;;;;;4986583;28;20730;-72
2024/03/07 07:27:42;;;;;;;57.90;31.57;;;;;;;;;;4989441;28;20222;-73
2024/03/07 07:30:08;;;;;;;59.33;31.60;;;;;;;;;;4990660;28;20725;-73
2024/03/07 07:32:33;;;;;;;74.10;36.67;;;;;;;;;;4986397;28;20183;-72
2024/03/07 07:34:58;;;;;;;73.23;36.50;;;;;;;;;;4995779;28;20202;-72
2024/03/07 07:37:23;;;;;;;65.23;33.63;;;;;;;;;;4998507;28;20679;-72
2024/03/07 07:39:48;;;;;;;63.73;30.37;;;;;;;;;;4986999;28;20223;-72
2024/03/07 07:42:14;;;;;;;64.57;34.60;;;;;;;;;;4997085;28;20306;-72
2024/03/07 07:44:40;;;;;;;46.67;25.20;;;;;;;;;;4995093;28;20213;-72
2024/03/07 07:47:05;;;;;;;51.13;23.57;;;;;;;;;;4999423;28;20191;-71
2024/03/07 07:49:31;;;;;;;44.00;22.87;;;;;;;;;;4994776;28;20219;-72
2024/03/07 07:51:56;;;;;;;39.20;22.83;;;;;;;;;;4985215;28;20179;-71
2024/03/07 07:54:21;;;;;;;46.50;23.63;;;;;;;;;;4991348;28;20175;-71
2024/03/07 07:56:47;;;;;;;39.47;22.40;;;;;;;;;;4993691;28;20302;-72
2024/03/07 07:59:12;;;;;;;36.10;21.33;;;;;;;;;;4995463;28;20653;-72
2024/03/07 08:01:38;;;;;;;43.23;22.10;;;;;;;;;;4999789;28;20179;-71
2024/03/07 08:04:04;;;;;;;46.93;22.90;;;;;;;;;;4998423;28;20287;-72
2024/03/07 08:06:30;;;;;;;43.37;21.87;;;;;;;;;;4993044;28;20183;-72
2024/03/07 08:08:55;;;;;;;37.13;20.80;;;;;;;;;;4999987;28;20174;-71
2024/03/07 08:11:20;;;;;;;35.67;21.23;;;;;;;;;;4996778;28;20230;-72
2024/03/07 08:13:49;;;;;;;44.20;20.73;;;;;;;;;;4973144;28;20280;-72
2024/03/07 08:16:14;;;;;;;39.63;21.10;;;;;;;;;;4996441;28;20237;-72
2024/03/07 08:18:39;;;;;;;33.80;20.33;;;;;;;;;;5040573;23;20230;-70
2024/03/07 08:21:05;;;;;;;34.67;19.80;;;;;;;;;;5014059;28;20179;-69
2024/03/07 08:23:31;;;;;;;31.67;19.27;;;;;;;;;;5013585;28;20596;-70
2024/03/07 08:25:56;;;;;;;38.53;18.97;;;;;;;;;;5007685;28;20198;-70
2024/03/07 08:28:21;;;;;;;32.97;18.07;;;;;;;;;;4994939;28;20196;-70
2024/03/07 08:30:46;;;;;;;34.43;19.50;;;;;;;;;;4972767;28;20184;-69
2024/03/07 08:33:13;;;;;;;31.77;18.50;;;;;;;;;;4990050;28;20189;-70
2024/03/07 08:35:38;;;;;;;28.43;18.53;;;;;;;;;;4972572;28;20175;-70
2024/03/07 08:38:04;;;;;;;31.30;16.10;;;;;;;;;;4990228;28;20210;-69
2024/03/07 08:40:33;;;;;;;27.63;17.03;;;;;;;;;;4991097;28;20667;-70
2024/03/07 08:42:59;;;;;;;32.57;16.57;;;;;;;;;;4990633;28;20235;-70
2024/03/07 08:45:26;;;;;;;29.80;16.87;;;;;;;;;;4989481;28;20215;-70
2024/03/07 08:47:52;;;;;;;30.00;16.73;;;;;;;;;;4990809;28;20214;-71
2024/03/07 08:50:18;;;;;;;33.80;16.53;;;;;;;;;;4990817;28;20206;-71
2024/03/07 08:52:44;;;;;;;24.80;14.40;;;;;;;;;;4990538;28;20188;-70
2024/03/07 08:55:10;;;;;;;23.97;15.60;;;;;;;;;;4990933;28;20203;-70
2024/03/07 08:57:36;;;;;;;29.20;15.40;;;;;;;;;;4988811;28;20234;-71
2024/03/07 09:00:08;;;;;;;23.30;14.53;;;;;;;;;;4989448;28;20212;-68
2024/03/07 09:02:34;;;;;;;29.27;15.70;;;;;;;;;;4990335;28;20250;-69
2024/03/07 09:04:59;;;;;;;25.10;14.67;;;;;;;;;;4986855;28;20198;-69
2024/03/07 09:07:25;;;;;;;25.50;14.60;;;;;;;;;;4986837;28;20197;-69
2024/03/07 09:09:50;;;;;;;20.03;13.57;;;;;;;;;;4991482;28;20237;-70
2024/03/07 09:12:15;;;;;;;22.70;13.77;;;;;;;;;;4983879;28;20187;-70
2024/03/07 09:14:40;;;;;;;22.83;14.33;;;;;;;;;;4988106;28;20183;-70
2024/03/07 09:17:05;;;;;;;21.23;12.63;;;;;;;;;;4984261;28;20305;-70
2024/03/07 09:19:31;;;;;;;21.40;13.53;;;;;;;;;;4988614;28;20233;-71
2024/03/07 09:21:56;;;;;;;21.53;14.00;;;;;;;;;;4987670;28;20187;-70
2024/03/07 09:24:21;;;;;;;21.97;13.53;;;;;;;;;;4981235;28;20207;-70
2024/03/07 09:26:47;;;;;;;23.00;13.23;;;;;;;;;;4983824;28;20542;-69
2024/03/07 09:29:12;;;;;;;22.03;13.90;;;;;;;;;;4985136;28;20567;-68
2024/03/07 09:31:39;;;;;;;24.43;14.07;;;;;;;;;;4981893;28;20175;-70
2024/03/07 09:34:04;;;;;;;20.93;12.57;;;;;;;;;;4983133;28;20215;-69
2024/03/07 09:36:30;;;;;;;21.77;13.07;;;;;;;;;;4985543;28;20218;-69
2024/03/07 09:38:56;;;;;;;22.90;12.57;;;;;;;;;;4990100;28;20295;-70
2024/03/07 09:41:24;;;;;;;18.97;12.50;;;;;;;;;;4986404;28;20192;-68
2024/03/07 09:43:51;;;;;;;22.60;12.47;;;;;;;;;;4968551;28;20204;-70
2024/03/07 09:46:16;;;;;;;24.20;14.23;;;;;;;;;;4986667;28;20185;-71
2024/03/07 09:48:41;;;;;;;20.53;12.90;;;;;;;;;;4988417;28;20199;-70
2024/03/07 09:51:10;;;;;;;18.93;12.77;;;;;;;;;;4971009;28;20183;-70
2024/03/07 09:53:37;;;;;;;20.17;12.60;;;;;;;;;;4968868;28;20226;-70
2024/03/07 09:56:03;;;;;;;17.17;10.83;;;;;;;;;;4987136;28;20686;-70
2024/03/07 09:58:30;;;;;;;18.95;12.02;;;;;;;;;;4991985;28;20249;-69
2024/03/07 10:00:56;;;;;;;18.87;11.87;;;;;;;;;;4988434;28;20175;-70
2024/03/07 10:03:23;;;;;;;19.88;11.70;;;;;;;;;;4990937;28;20612;-70
2024/03/07 10:05:49;;;;;;;18.63;12.10;;;;;;;;;;4972590;28;20171;-69
2024/03/07 10:08:16;;;;;;;18.33;11.83;;;;;;;;;;4987885;28;20204;-69
2024/03/07 10:10:44;;;;;;;17.53;11.57;;;;;;;;;;4988659;28;20186;-69
2024/03/07 10:13:09;;;;;;;19.02;12.55;;;;;;;;;;4987000;28;20535;-70
2024/03/07 10:15:34;;;;;;;27.42;12.38;;;;;;;;;;4989880;28;20186;-70
2024/03/07 10:18:00;;;;;;;19.00;12.30;;;;;;;;;;4987798;28;20231;-70
2024/03/07 10:20:26;;;;;;;21.30;12.70;;;;;;;;;;4987847;28;20553;-70
2024/03/07 10:22:51;;;;;;;19.80;12.73;;;;;;;;;;4990705;28;20179;-69
2024/03/07 10:25:18;;;;;;;19.65;11.90;;;;;;;;;;4971299;28;20258;-69
2024/03/07 10:27:44;;;;;;;17.00;11.07;;;;;;;;;;4990000;28;20671;-70
2024/03/07 10:30:09;;;;;;;19.70;11.57;;;;;;;;;;4988673;28;20258;-69
2024/03/07 10:32:35;;;;;;;19.95;11.40;;;;;;;;;;4990055;28;20557;-69
2024/03/07 10:35:03;;;;;;;18.70;11.13;;;;;;;;;;4980219;28;20210;-68
2024/03/07 10:37:28;;;;;;;17.90;11.20;;;;;;;;;;4990090;28;20254;-70
2024/03/07 10:39:55;;;;;;;17.10;11.60;;;;;;;;;;4971861;28;20185;-70
2024/03/07 10:42:21;;;;;;;20.38;12.45;;;;;;;;;;4990039;28;20194;-70
2024/03/07 10:44:47;;;;;;;18.40;11.82;;;;;;;;;;4988992;28;20264;-70
2024/03/07 10:47:17;;;;;;;19.48;12.13;;;;;;;;;;4987522;28;20233;-70
2024/03/07 10:49:53;;;;;;;21.67;12.55;;;;;;;;;;4982984;28;20183;-70
2024/03/07 10:52:30;;;;;;;17.92;12.43;;;;;;;;;;4972275;28;20179;-70
2024/03/07 10:55:07;;;;;;;21.77;12.30;;;;;;;;;;4971019;28;20186;-70
2024/03/07 10:57:41;;;;;;;16.83;10.45;;;;;;;;;;4983123;28;20209;-70
2024/03/07 11:03:11;;;;;;;17.73;10.85;;;;;;;;;;4950648;29;20217;-70
2024/03/07 11:05:37;;;;;;;16.42;9.95;;;;;;;;;;4944971;29;20612;-71
2024/03/07 11:08:12;;;;;;;16.20;11.27;;;;;;;;;;4968918;28;20907;-70
2024/03/07 11:10:37;;;;;;;17.02;10.45;;;;;;;;;;4967932;28;20587;-70
2024/03/07 11:13:03;;;;;;;18.67;10.43;;;;;;;;;;4974411;28;20180;-70
2024/03/07 11:15:30;;;;;;;15.15;9.73;;;;;;;;;;4984961;28;20178;-70
2024/03/07 11:17:55;;;;;;;14.48;9.48;;;;;;;;;;4966171;28;20584;-69
2024/03/07 11:20:23;;;;;;;15.00;9.93;;;;;;;;;;4981155;28;20187;-70
2024/03/07 11:22:49;;;;;;;16.25;9.60;;;;;;;;;;4988420;28;20171;-70
2024/03/07 11:25:17;;;;;;;14.30;8.73;;;;;;;;;;4986911;28;20218;-70
2024/03/07 11:27:50;;;;;;;15.50;8.80;;;;;;;;;;4989274;28;20735;-70
2024/03/07 11:30:17;;;;;;;12.75;8.82;;;;;;;;;;4975988;28;20603;-70
2024/03/07 11:32:44;;;;;;;14.02;9.65;;;;;;;;;;4971809;28;20177;-70
2024/03/07 11:35:15;;;;;;;16.60;9.95;;;;;;;;;;4986413;28;20234;-71
2024/03/07 11:37:46;;;;;;;15.02;8.98;;;;;;;;;;4990338;28;20199;-69
2024/03/07 11:40:18;;;;;;;17.27;9.93;;;;;;;;;;4990636;28;20175;-69
2024/03/07 11:42:49;;;;;;;18.73;9.25;;;;;;;;;;4993958;28;20184;-70
2024/03/07 11:45:29;;;;;;;17.20;10.80;;;;;;;;;;4988553;28;20856;-69
2024/03/07 11:47:59;;;;;;;16.17;9.73;;;;;;;;;;4987025;28;20207;-69
2024/03/07 11:50:25;;;;;;;17.30;10.85;;;;;;;;;;4987380;28;20702;-69
2024/03/07 11:52:52;;;;;;;17.55;10.32;;;;;;;;;;4985114;28;20176;-69
2024/03/07 11:55:18;;;;;;;16.25;10.27;;;;;;;;;;4972778;28;20242;-70
2024/03/07 11:57:44;;;;;;;17.58;10.73;;;;;;;;;;4975427;28;20227;-70
2024/03/07 12:00:10;;;;;;;17.38;10.55;;;;;;;;;;4975958;28;20214;-70
2024/03/07 12:02:37;;;;;;;16.00;10.07;;;;;;;;;;4987711;28;20184;-69
2024/03/07 12:05:05;;;;;;;16.95;10.57;;;;;;;;;;4981651;28;20291;-69
2024/03/07 12:07:30;;;;;;;17.48;10.73;;;;;;;;;;4969045;28;20199;-70
2024/03/07 12:09:55;;;;;;;22.88;11.68;;;;;;;;;;4985900;28;20172;-69
2024/03/07 12:12:24;;;;;;;18.70;11.27;;;;;;;;;;4993265;28;20207;-69
2024/03/07 12:14:52;;;;;;;16.55;11.13;;;;;;;;;;4985076;28;20557;-68
2024/03/07 12:17:17;;;;;;;16.48;10.60;;;;;;;;;;4993009;28;20666;-69
2024/03/07 12:19:44;;;;;;;17.80;10.65;;;;;;;;;;4985187;28;20553;-69
2024/03/07 12:22:12;;;;;;;15.35;11.15;;;;;;;;;;4985251;28;20565;-70
2024/03/07 12:24:38;;;;;;;15.88;10.73;;;;;;;;;;4990339;28;20295;-69
2024/03/07 12:27:09;;;;;;;19.40;10.98;;;;;;;;;;4993616;28;20199;-70
2024/03/07 12:29:35;;;;;;;18.92;11.95;;;;;;;;;;4992082;28;20675;-70
2024/03/07 12:32:00;;;;;;;16.50;11.10;;;;;;;;;;4991058;28;20274;-70
2024/03/07 12:34:30;;;;;;;18.58;9.90;;;;;;;;;;4979669;28;20668;-70
2024/03/07 12:36:56;;;;;;;17.63;10.32;;;;;;;;;;4983546;28;20180;-70
2024/03/07 12:39:25;;;;;;;17.98;10.98;;;;;;;;;;4989149;28;20266;-70
2024/03/07 12:41:54;;;;;;;17.67;11.32;;;;;;;;;;4990879;28;20237;-71
2024/03/07 12:44:19;;;;;;;15.88;9.80;;;;;;;;;;4994273;28;20202;-70
2024/03/07 12:46:48;;;;;;;16.35;10.38;;;;;;;;;;4981427;28;20258;-70
2024/03/07 12:49:15;;;;;;;15.30;9.00;;;;;;;;;;4978922;28;20169;-69
2024/03/07 12:51:41;;;;;;;15.48;9.77;;;;;;;;;;4987036;28;20308;-70
2024/03/07 12:54:09;;;;;;;15.25;9.95;;;;;;;;;;4975432;28;20191;-70
2024/03/07 12:56:34;;;;;;;15.55;9.75;;;;;;;;;;4974386;28;20180;-70
2024/03/07 12:59:01;;;;;;;16.10;9.10;;;;;;;;;;4983851;28;20200;-70
2024/03/07 13:01:26;;;;;;;15.05;9.38;;;;;;;;;;4987657;28;20255;-70
2024/03/07 13:03:53;;;;;;;17.83;10.35;;;;;;;;;;4970086;28;20287;-70
2024/03/07 13:06:29;;;;;;;15.10;10.13;;;;;;;;;;4971636;28;20172;-70
2024/03/07 13:08:56;;;;;;;14.00;9.20;;;;;;;;;;4993710;28;20195;-71
2024/03/07 13:11:21;;;;;;;15.18;9.43;;;;;;;;;;4976570;28;20645;-70
2024/03/07 13:13:47;;;;;;;16.10;9.52;;;;;;;;;;4991726;28;20194;-69
2024/03/07 13:16:12;;;;;;;12.80;9.65;;;;;;;;;;4975013;28;20212;-70
2024/03/07 13:18:37;;;;;;;11.77;7.43;;;;;;;;;;4983910;28;20219;-69
2024/03/07 13:21:06;;;;;;;14.82;9.02;;;;;;;;;;4982606;28;20191;-70
2024/03/07 13:23:32;;;;;;;16.23;8.88;;;;;;;;;;4989077;28;20176;-69
2024/03/07 13:25:57;;;;;;;14.70;8.85;;;;;;;;;;4974522;28;20186;-68
2024/03/07 13:28:25;;;;;;;13.93;8.85;;;;;;;;;;4986588;28;20196;-70
2024/03/07 13:30:54;;;;;;;14.65;8.98;;;;;;;;;;4980268;28;20588;-70
2024/03/07 13:33:19;;;;;;;13.20;7.80;;;;;;;;;;4998378;28;20171;-70
2024/03/07 13:35:44;;;;;;;15.75;8.20;;;;;;;;;;4967380;28;20196;-70
2024/03/07 13:38:10;;;;;;;14.43;9.30;;;;;;;;;;4963400;28;20445;-70
2024/03/07 13:40:38;;;;;;;11.38;8.40;;;;;;;;;;4979676;28;20195;-70
2024/03/07 13:43:04;;;;;;;15.20;8.05;;;;;;;;;;4985250;28;20176;-70
2024/03/07 13:45:31;;;;;;;15.10;8.57;;;;;;;;;;4988363;28;20207;-70
2024/03/07 13:47:58;;;;;;;15.05;8.40;;;;;;;;;;4987517;28;20790;-70
2024/03/07 13:50:24;;;;;;;17.35;9.48;;;;;;;;;;4985916;28;20198;-70
2024/03/07 13:53:32;;;;;;;14.75;8.32;;;;;;;;;;4992005;28;20176;-70
2024/03/07 13:55:50;;;;;;;14.02;8.30;;;;;;;;;;4982324;28;20668;-69
2024/03/07 13:58:34;;;;;;;12.77;7.93;;;;;;;;;;4984659;28;20204;-69
2024/03/07 14:01:20;;;;;;;12.50;8.85;;;;;;;;;;4991006;28;20560;-69
2024/03/07 14:03:45;;;;;;;15.07;9.70;;;;;;;;;;4979643;28;20298;-69
2024/03/07 14:06:22;;;;;;;19.90;10.35;;;;;;;;;;4982379;28;20907;-69
2024/03/07 14:08:58;;;;;;;14.18;8.60;;;;;;;;;;4991464;28;20566;-70
2024/03/07 14:11:43;;;;;;;15.43;9.85;;;;;;;;;;4971683;28;20182;-68
2024/03/07 14:14:27;;;;;;;15.20;9.82;;;;;;;;;;4964946;28;20267;-69
2024/03/07 14:17:04;;;;;;;13.90;8.13;;;;;;;;;;4980481;28;20183;-69